Time;durP1;ratioP1;P1;durP2;ratioP2;P2;SDS_P1;SDS_P2;PMS_P1;PMS_P2;Temp;Humidity;BMP_temperature;BMP_pressure;BME280_temperature;BME280_humidity;BME280_pressure;Samples;Min_cycle;Max_cycle;Signal;HPM_P1;HPM_P2
2022/05/06 00:01:38;;;;;;;;;19.00;17.25;;;;;16.05;55.43;102283.63;5062401;28;45411;-68
2022/05/06 00:04:04;;;;;;;;;19.50;17.50;;;;;16.05;55.45;102286.28;5061754;28;45353;-68
2022/05/06 00:06:31;;;;;;;;;14.50;13.75;;;;;16.06;55.72;102287.13;5061643;28;45393;-68
2022/05/06 00:08:57;;;;;;;;;20.25;17.50;;;;;16.05;55.87;102285.44;5061877;28;45197;-69
2022/05/06 00:11:23;;;;;;;;;18.25;16.25;;;;;16.04;55.50;102292.53;5061713;28;45268;-69
2022/05/06 00:13:52;;;;;;;;;21.75;18.00;;;;;16.07;55.73;102296.81;5061256;28;45246;-69
2022/05/06 00:16:18;;;;;;;;;18.25;16.00;;;;;16.06;55.67;102285.34;5061452;28;45380;-68
2022/05/06 00:18:44;;;;;;;;;19.25;19.25;;;;;16.06;55.69;102282.66;5060956;28;45273;-68
2022/05/06 00:21:10;;;;;;;;;20.50;18.00;;;;;16.07;55.88;102295.00;5061575;28;45252;-68
2022/05/06 00:23:35;;;;;;;;;19.75;19.25;;;;;16.04;56.11;102287.22;5061411;28;45884;-68
2022/05/06 00:26:03;;;;;;;;;17.25;16.25;;;;;16.03;55.97;102281.97;5059861;28;45344;-69
2022/05/06 00:28:29;;;;;;;;;23.50;18.75;;;;;16.01;56.03;102295.34;5061383;28;45255;-68
2022/05/06 00:30:54;;;;;;;;;19.50;18.00;;;;;15.98;55.89;102284.91;5061467;28;45522;-68
2022/05/06 00:33:24;;;;;;;;;25.25;19.00;;;;;15.97;56.24;102287.66;5061484;28;45465;-68
2022/05/06 00:35:53;;;;;;;;;20.25;18.00;;;;;15.93;56.13;102280.81;5061266;28;45240;-68
2022/05/06 00:38:18;;;;;;;;;26.00;21.75;;;;;15.91;56.33;102287.06;5061643;28;45239;-68
2022/05/06 00:40:44;;;;;;;;;21.50;19.25;;;;;15.93;56.60;102286.13;5061261;28;45582;-69
2022/05/06 00:43:11;;;;;;;;;24.50;20.00;;;;;15.94;56.42;102291.34;5060937;28;46574;-69
2022/05/06 00:45:53;;;;;;;;;22.75;20.75;;;;;15.96;56.30;102291.25;5061051;28;45390;-68
2022/05/06 00:48:22;;;;;;;;;25.00;19.00;;;;;15.95;56.42;102294.84;5061236;28;45515;-69
2022/05/06 00:50:48;;;;;;;;;21.50;19.00;;;;;15.96;56.75;102285.94;5061271;28;45312;-68
2022/05/06 00:53:15;;;;;;;;;22.75;21.50;;;;;15.93;56.39;102291.44;5060823;28;45533;-68
2022/05/06 00:55:41;;;;;;;;;20.25;17.75;;;;;15.91;56.31;102292.38;5060990;28;45332;-68
2022/05/06 00:58:07;;;;;;;;;27.25;20.25;;;;;15.85;56.41;102283.91;5060945;28;45348;-68
2022/05/06 01:00:33;;;;;;;;;25.50;19.25;;;;;15.81;56.67;102282.38;5061464;28;45450;-68
2022/05/06 01:02:59;;;;;;;;;24.00;19.25;;;;;15.79;56.73;102282.44;5060935;28;45469;-68
2022/05/06 01:05:26;;;;;;;;;26.25;22.50;;;;;15.80;56.68;102284.16;5059604;28;45283;-68
2022/05/06 01:07:52;;;;;;;;;28.25;21.00;;;;;15.79;56.35;102277.13;5060887;28;45347;-68
2022/05/06 01:10:20;;;;;;;;;23.00;20.75;;;;;15.76;57.03;102282.63;5060881;28;45561;-68
2022/05/06 01:12:46;;;;;;;;;24.50;21.00;;;;;15.72;57.06;102281.09;5060396;28;45426;-68
2022/05/06 01:15:25;;;;;;;;;26.00;18.25;;;;;15.68;57.14;102276.88;5060844;28;45314;-67
2022/05/06 01:17:53;;;;;;;;;22.25;20.00;;;;;15.68;57.04;102278.69;5060816;28;45299;-69
2022/05/06 01:20:20;;;;;;;;;30.25;23.00;;;;;15.66;57.23;102286.75;5060921;28;45244;-68
2022/05/06 01:22:48;;;;;;;;;23.25;23.00;;;;;15.67;57.29;102277.81;5060507;28;46243;-68
2022/05/06 01:25:14;;;;;;;;;25.75;22.50;;;;;15.67;57.20;102280.47;5060692;28;45152;-68
2022/05/06 01:27:55;;;;;;;;;23.50;21.75;;;;;15.65;57.20;102282.38;5060407;28;45315;-68
2022/05/06 01:30:34;;;;;;;;;15.75;11.75;;;;;15.65;57.55;102284.19;5062152;28;45492;-69
2022/05/06 01:33:03;;;;;;;;;20.25;19.25;;;;;15.64;57.54;102288.63;5062789;28;46416;-68
2022/05/06 01:35:30;;;;;;;;;24.75;19.25;;;;;15.65;57.32;102281.53;5063965;28;45335;-68
2022/05/06 01:38:00;;;;;;;;;21.00;21.00;;;;;15.65;57.43;102284.19;5064375;28;45188;-68
2022/05/06 01:40:27;;;;;;;;;23.25;19.25;;;;;15.63;57.21;102281.56;5064160;28;45405;-68
2022/05/06 01:42:59;;;;;;;;;26.50;21.25;;;;;15.66;57.14;102280.56;5063854;28;46159;-68
2022/05/06 01:45:28;;;;;;;;;23.25;19.00;;;;;15.63;57.37;102285.09;5064122;28;45246;-69
2022/05/06 01:47:55;;;;;;;;;23.00;18.75;;;;;15.63;57.34;102276.25;5064389;28;45308;-69
2022/05/06 01:50:21;;;;;;;;;22.25;21.25;;;;;15.63;57.06;102282.44;5063995;28;45398;-69
2022/05/06 01:52:51;;;;;;;;;27.50;23.00;;;;;15.61;57.49;102283.47;5063747;28;46051;-68
2022/05/06 01:55:17;;;;;;;;;29.75;21.50;;;;;15.56;57.44;102277.50;5063482;28;45374;-68
2022/05/06 01:57:43;;;;;;;;;26.00;20.75;;;;;15.56;57.65;102282.81;5063955;28;45369;-69
2022/05/06 02:00:09;;;;;;;;;23.75;20.00;;;;;15.49;57.75;102285.00;5062749;28;45244;-68
2022/05/06 02:02:35;;;;;;;;;21.75;20.00;;;;;15.45;57.69;102291.41;5063755;28;45999;-68
2022/05/06 02:05:19;;;;;;;;;22.50;19.75;;;;;15.44;58.01;102288.84;5062255;28;45457;-69
2022/05/06 02:07:49;;;;;;;;;26.75;24.75;;;;;15.43;57.85;102287.13;5063609;28;45524;-68
2022/05/06 02:10:19;;;;;;;;;25.25;21.25;;;;;15.43;58.12;102290.63;5063702;28;45239;-68
2022/05/06 02:12:47;;;;;;;;;32.50;23.00;;;;;15.42;58.01;102288.94;5063130;28;46263;-68
2022/05/06 02:15:15;;;;;;;;;26.25;22.50;;;;;15.42;58.10;102288.06;5063627;28;45212;-68
2022/05/06 02:17:41;;;;;;;;;27.25;22.75;;;;;15.41;57.95;102284.56;5063716;28;45170;-68
2022/05/06 02:20:09;;;;;;;;;24.75;23.25;;;;;15.41;58.14;102286.34;5063484;28;45265;-69
2022/05/06 02:22:42;;;;;;;;;27.75;21.50;;;;;15.36;58.04;102284.78;5063323;28;45381;-68
2022/05/06 02:25:09;;;;;;;;;26.00;23.25;;;;;15.35;58.19;102285.75;5063305;28;45473;-68
2022/05/06 02:27:38;;;;;;;;;20.50;18.75;;;;;15.33;57.96;102287.63;5063804;28;45377;-68
2022/05/06 02:35:36;;;;;;;;;26.75;21.50;;;;;15.22;58.27;102279.38;5063379;28;45446;-69
2022/05/06 02:38:03;;;;;;;;;20.00;19.00;;;;;15.19;58.53;102278.69;5062227;28;45287;-68
2022/05/06 02:40:29;;;;;;;;;28.50;26.50;;;;;15.13;58.00;102284.31;5079103;27;45383;-68
2022/05/06 02:42:54;;;;;;;;;27.00;23.00;;;;;15.06;58.58;102279.34;5062446;28;45413;-67
2022/05/06 02:45:20;;;;;;;;;26.25;21.25;;;;;15.06;58.79;102281.16;5063166;28;45326;-67
2022/05/06 02:47:45;;;;;;;;;20.50;18.75;;;;;15.03;58.79;102283.97;5063212;28;45309;-68
2022/05/06 02:50:11;;;;;;;;;25.75;23.50;;;;;14.98;58.46;102273.59;5063071;28;45303;-68
2022/05/06 02:52:37;;;;;;;;;25.75;22.25;;;;;14.96;58.79;102288.75;5062693;28;46147;-67
2022/05/06 02:55:02;;;;;;;;;22.25;17.00;;;;;14.91;58.78;102284.59;5062583;28;45315;-68
2022/05/06 02:57:28;;;;;;;;;24.00;19.75;;;;;14.86;58.93;102287.53;5063054;28;45176;-68
2022/05/06 02:59:54;;;;;;;;;24.25;19.25;;;;;14.78;59.25;102289.72;5063227;28;45431;-68
2022/05/06 03:02:20;;;;;;;;;27.25;23.00;;;;;14.72;59.10;102284.72;5062838;28;45242;-68
2022/05/06 03:04:45;;;;;;;;;29.25;25.75;;;;;14.68;59.45;102289.31;5062636;28;45141;-68
2022/05/06 03:07:10;;;;;;;;;28.50;25.25;;;;;14.67;59.63;102290.25;5061687;28;45534;-67
2022/05/06 03:09:39;;;;;;;;;28.75;26.75;;;;;14.68;59.40;102285.81;5062693;28;45397;-68
2022/05/06 03:12:05;;;;;;;;;29.75;23.25;;;;;14.68;59.57;102291.09;5062554;28;45391;-68
2022/05/06 03:14:31;;;;;;;;;26.00;24.50;;;;;14.69;59.44;102295.47;5062428;28;45255;-68
2022/05/06 03:16:56;;;;;;;;;28.75;27.00;;;;;14.66;59.65;102291.19;5062909;28;45335;-68
2022/05/06 03:19:22;;;;;;;;;25.25;25.25;;;;;14.62;59.58;102294.97;5062609;28;45284;-68
2022/05/06 03:21:52;;;;;;;;;25.00;21.75;;;;;14.61;59.59;102293.22;5062537;28;45282;-69
2022/05/06 03:24:18;;;;;;;;;26.75;21.00;;;;;14.60;59.45;102295.94;5063191;28;45431;-68
2022/05/06 03:26:44;;;;;;;;;19.75;19.50;;;;;14.56;59.33;102295.25;5062849;28;45272;-68
2022/05/06 03:29:09;;;;;;;;;24.25;22.75;;;;;14.52;59.79;102299.00;5062498;28;45470;-68
2022/05/06 03:31:36;;;;;;;;;28.75;26.50;;;;;14.44;59.83;102286.09;5062506;28;45429;-67
2022/05/06 03:34:02;;;;;;;;;25.00;22.75;;;;;14.40;60.20;102287.19;5062140;28;45173;-68
2022/05/06 03:36:28;;;;;;;;;27.50;26.75;;;;;14.35;60.25;102296.31;5062488;28;45224;-68
2022/05/06 03:38:53;;;;;;;;;28.00;26.75;;;;;14.29;60.31;102289.50;5062194;28;45491;-68
2022/05/06 03:41:19;;;;;;;;;27.00;25.00;;;;;14.31;60.37;102290.31;5062039;28;45676;-68
2022/05/06 03:43:44;;;;;;;;;26.00;21.25;;;;;14.30;60.30;102298.31;5061903;28;45314;-68
2022/05/06 03:46:10;;;;;;;;;27.00;22.50;;;;;14.24;60.40;102297.72;5062356;28;45477;-68
2022/05/06 03:48:35;;;;;;;;;26.50;21.25;;;;;14.21;60.21;102299.63;5062051;28;45449;-68
2022/05/06 03:53:45;;;;;;;;;35.00;27.25;;;;;14.12;60.69;102302.75;5060603;28;45429;-68
2022/05/06 03:56:11;;;;;;;;;26.75;25.25;;;;;14.07;60.72;102297.69;5062018;28;45340;-68
2022/05/06 03:58:37;;;;;;;;;32.50;28.00;;;;;14.05;60.75;102306.63;5061692;28;45471;-68
2022/05/06 04:01:07;;;;;;;;;28.75;25.25;;;;;14.02;60.67;102310.31;5062445;28;46454;-68
2022/05/06 04:03:32;;;;;;;;;27.75;19.75;;;;;14.00;61.05;102311.31;5061864;28;45254;-68
2022/05/06 04:05:58;;;;;;;;;30.50;26.00;;;;;14.01;61.26;102307.72;5061996;28;45263;-68
2022/05/06 04:08:24;;;;;;;;;25.75;23.00;;;;;14.01;60.92;102311.22;5061727;28;45512;-68
2022/05/06 04:10:49;;;;;;;;;33.25;24.00;;;;;14.01;61.04;102313.88;5061471;28;45274;-68
2022/05/06 04:13:18;;;;;;;;;27.00;23.75;;;;;14.02;61.07;102312.09;5061229;28;45240;-68
2022/05/06 04:15:47;;;;;;;;;23.00;19.75;;;;;14.02;61.03;102307.66;5061717;28;45276;-69
2022/05/06 04:18:14;;;;;;;;;32.00;27.00;;;;;14.02;61.23;102312.94;5061780;28;45466;-69
2022/05/06 04:23:30;;;;;;;;;31.25;25.00;;;;;13.99;61.29;102318.41;5061599;28;45321;-69
2022/05/06 04:25:59;;;;;;;;;32.50;27.50;;;;;13.98;61.20;102316.66;5061475;28;45310;-69
2022/05/06 04:28:26;;;;;;;;;22.00;21.50;;;;;13.96;61.23;102319.41;5061507;28;45521;-69
2022/05/06 04:30:52;;;;;;;;;28.75;26.75;;;;;13.99;61.30;102321.06;5061290;28;45428;-69
2022/05/06 04:33:19;;;;;;;;;30.75;26.75;;;;;14.02;61.28;102318.25;5061319;28;45324;-69
2022/05/06 04:35:46;;;;;;;;;19.75;17.25;;;;;14.01;61.44;102316.53;5061447;28;45349;-69
2022/05/06 04:38:11;;;;;;;;;29.75;26.50;;;;;14.00;61.35;102319.25;5061635;28;45301;-68
2022/05/06 04:40:38;;;;;;;;;32.50;23.75;;;;;14.00;61.29;102327.22;5059372;28;47532;-68
2022/05/06 04:43:04;;;;;;;;;31.75;24.50;;;;;14.02;61.23;102326.19;5061082;28;45180;-68
2022/05/06 04:45:29;;;;;;;;;21.50;17.25;;;;;14.02;61.27;102323.53;5061028;28;45310;-69
2022/05/06 04:47:56;;;;;;;;;36.75;29.00;;;;;14.03;61.17;102333.22;5061290;28;45224;-68
2022/05/06 04:50:21;;;;;;;;;34.00;27.25;;;;;14.02;61.18;102334.16;5060982;28;46157;-69
2022/05/06 04:52:47;;;;;;;;;30.25;24.75;;;;;14.03;61.41;102329.69;5060925;28;45328;-68
2022/05/06 04:55:12;;;;;;;;;30.00;26.00;;;;;14.06;61.23;102334.84;5060839;28;45330;-68
2022/05/06 04:57:38;;;;;;;;;26.00;24.00;;;;;14.07;61.57;102334.78;5060913;28;45337;-69
2022/05/06 05:00:04;;;;;;;;;31.00;25.50;;;;;14.06;61.07;102335.72;5061117;28;45821;-69
2022/05/06 05:02:30;;;;;;;;;31.50;26.50;;;;;14.05;61.31;102335.78;5061309;28;45367;-69
2022/05/06 05:04:58;;;;;;;;;24.50;22.75;;;;;14.03;61.47;102338.50;5060627;28;45302;-69
2022/05/06 05:07:24;;;;;;;;;34.00;29.50;;;;;14.03;61.50;102342.94;5061174;28;45344;-69
2022/05/06 05:09:50;;;;;;;;;34.00;27.75;;;;;14.03;61.18;102346.47;5060593;28;45196;-68
2022/05/06 05:12:15;;;;;;;;;29.25;23.00;;;;;14.04;61.34;102348.16;5060924;28;45247;-69
2022/05/06 05:14:44;;;;;;;;;36.50;29.00;;;;;14.05;61.35;102349.88;5060803;28;45349;-69
2022/05/06 05:17:11;;;;;;;;;28.00;27.25;;;;;14.06;61.01;102342.78;5061023;28;45449;-69
2022/05/06 05:19:37;;;;;;;;;28.50;27.00;;;;;14.11;61.18;102344.28;5060416;28;46066;-69
2022/05/06 05:22:03;;;;;;;;;30.25;27.50;;;;;14.18;61.23;102348.38;5060823;28;45327;-69
2022/05/06 05:24:28;;;;;;;;;34.50;32.00;;;;;14.22;61.13;102349.09;5060904;28;45220;-69
2022/05/06 05:26:54;;;;;;;;;33.75;27.25;;;;;14.23;61.03;102348.16;5060512;28;45479;-69
2022/05/06 05:29:20;;;;;;;;;33.50;26.75;;;;;14.23;60.89;102345.50;5060380;28;46240;-69
2022/05/06 05:31:47;;;;;;;;;29.50;28.75;;;;;14.21;60.96;102350.00;5060658;28;45161;-69
2022/05/06 05:34:12;;;;;;;;;32.00;27.25;;;;;14.20;60.99;102346.50;5060563;28;45327;-69
2022/05/06 05:36:38;;;;;;;;;30.50;25.75;;;;;14.22;61.05;102354.41;5060668;28;45426;-70
2022/05/06 05:39:03;;;;;;;;;36.50;28.75;;;;;14.23;60.90;102356.97;5060292;28;45920;-68
2022/05/06 05:41:28;;;;;;;;;43.50;33.25;;;;;14.22;61.09;102357.91;5060364;28;45349;-69
2022/05/06 05:49:22;;;;;;;;;40.25;30.50;;;;;14.25;60.83;102364.84;5060104;28;45433;-70
2022/05/06 05:51:47;;;;;;;;;35.25;30.75;;;;;14.29;60.68;102369.03;5060020;28;45228;-69
2022/05/06 05:54:15;;;;;;;;;32.75;29.25;;;;;14.31;60.82;102366.34;5060357;28;45334;-69
2022/05/06 05:56:41;;;;;;;;;35.75;27.00;;;;;14.35;60.64;102362.59;5060043;28;45660;-69
2022/05/06 05:59:07;;;;;;;;;34.25;31.75;;;;;14.39;60.61;102369.47;5060145;28;45220;-69
2022/05/06 06:01:32;;;;;;;;;30.75;28.50;;;;;14.47;60.49;102359.38;5060708;28;45295;-69
2022/05/06 06:03:58;;;;;;;;;34.50;29.75;;;;;14.56;60.48;102358.91;5060590;28;45415;-69
2022/05/06 06:06:23;;;;;;;;;36.75;31.00;;;;;14.66;60.49;102357.50;5060293;28;45248;-69
2022/05/06 06:08:49;;;;;;;;;32.25;30.25;;;;;14.73;60.17;102358.91;5060057;28;45430;-69
2022/05/06 06:11:14;;;;;;;;;36.75;35.00;;;;;14.78;60.32;102353.38;5059871;28;45169;-69
2022/05/06 06:13:40;;;;;;;;;36.50;31.50;;;;;14.86;60.07;102345.03;5060142;28;45294;-69
2022/05/06 06:16:05;;;;;;;;;46.25;33.75;;;;;14.94;59.95;102348.16;5058729;28;45588;-69
2022/05/06 06:18:31;;;;;;;;;40.00;30.75;;;;;15.02;59.96;102352.13;5063049;28;46139;-69
2022/05/06 06:20:56;;;;;;;;;38.50;34.00;;;;;15.09;59.93;102355.31;5063256;28;45374;-69
2022/05/06 06:23:23;;;;;;;;;38.00;32.00;;;;;15.14;59.84;102355.91;5063681;28;45355;-69
2022/05/06 06:25:48;;;;;;;;;36.25;29.50;;;;;15.20;59.77;102355.59;5063310;28;45604;-69
2022/05/06 06:28:14;;;;;;;;;38.75;33.50;;;;;15.26;59.56;102354.41;5062998;28;45398;-69
2022/05/06 06:30:40;;;;;;;;;44.50;33.25;;;;;15.29;59.58;102357.75;5062970;28;45359;-68
2022/05/06 06:33:10;;;;;;;;;36.25;32.25;;;;;15.35;59.70;102359.22;5063322;28;45391;-69
2022/05/06 06:35:35;;;;;;;;;38.75;29.25;;;;;15.44;59.82;102360.53;5063035;28;45552;-69
2022/05/06 06:38:01;;;;;;;;;43.75;33.50;;;;;15.58;59.28;102368.63;5063007;28;45854;-69
2022/05/06 06:40:27;;;;;;;;;37.50;32.75;;;;;15.63;59.43;102359.47;5062741;28;45276;-69
2022/05/06 06:42:52;;;;;;;;;42.00;31.50;;;;;15.73;59.26;102362.50;5063119;28;46416;-69
2022/05/06 06:45:18;;;;;;;;;38.25;32.00;;;;;15.85;59.10;102360.97;5063282;28;45567;-69
2022/05/06 06:47:44;;;;;;;;;40.75;33.25;;;;;15.94;58.94;102362.25;5062753;28;45439;-69
2022/05/06 06:50:09;;;;;;;;;41.25;33.50;;;;;15.99;59.04;102366.38;5062905;28;45414;-69
2022/05/06 06:52:35;;;;;;;;;38.00;32.00;;;;;16.06;58.55;102369.53;5062951;28;45410;-69
2022/05/06 06:55:01;;;;;;;;;35.75;31.50;;;;;16.09;58.71;102364.03;5062617;28;45314;-69
2022/05/06 06:57:30;;;;;;;;;42.50;32.25;;;;;16.07;58.62;102366.78;5062570;28;45920;-69
2022/05/06 06:59:55;;;;;;;;;36.00;30.00;;;;;16.06;58.97;102370.41;5063084;28;45461;-69
2022/05/06 07:02:21;;;;;;;;;36.75;30.25;;;;;16.13;58.51;102368.25;5062976;28;45481;-68
2022/05/06 07:04:47;;;;;;;;;40.00;32.75;;;;;16.20;58.48;102366.97;5062856;28;45461;-69
2022/05/06 07:12:41;;;;;;;;;47.00;32.50;;;;;16.33;58.42;102359.13;5062446;28;45386;-69
2022/05/06 07:15:06;;;;;;;;;39.00;33.25;;;;;16.33;58.39;102367.94;5062569;28;45410;-69
2022/05/06 07:17:32;;;;;;;;;36.00;29.00;;;;;16.34;58.15;102371.47;5062263;28;45447;-69
2022/05/06 07:19:57;;;;;;;;;35.25;28.50;;;;;16.39;58.15;102367.63;5062201;28;45279;-69
2022/05/06 07:22:23;;;;;;;;;35.25;27.25;;;;;16.44;58.19;102383.31;5062347;28;45256;-69
2022/05/06 07:24:48;;;;;;;;;37.00;31.75;;;;;16.46;57.98;102379.63;5062481;28;45319;-68
2022/05/06 07:27:14;;;;;;;;;34.75;28.00;;;;;16.46;58.06;102382.28;5061797;28;45894;-68
2022/05/06 07:29:39;;;;;;;;;34.75;28.00;;;;;16.47;58.02;102376.00;5060269;28;45359;-68
2022/05/06 07:32:05;;;;;;;;;37.50;32.00;;;;;16.50;57.91;102371.44;5062369;28;45294;-68
2022/05/06 07:34:31;;;;;;;;;27.00;24.75;;;;;16.53;58.03;102377.47;5062302;28;45227;-68
2022/05/06 07:36:57;;;;;;;;;28.75;23.25;;;;;16.58;57.99;102377.16;5060975;28;45449;-69
2022/05/06 07:39:23;;;;;;;;;30.50;29.00;;;;;16.62;57.79;102379.56;5062197;28;45418;-68
2022/05/06 07:41:48;;;;;;;;;26.75;26.00;;;;;16.66;57.79;102380.25;5061717;28;45299;-68
2022/05/06 07:44:14;;;;;;;;;25.75;25.75;;;;;16.72;57.89;102383.44;5062222;28;45245;-69
2022/05/06 07:46:39;;;;;;;;;32.25;28.50;;;;;16.78;57.53;102384.03;5062033;28;45578;-68
2022/05/06 07:49:06;;;;;;;;;26.75;24.00;;;;;16.78;57.30;102374.25;5062024;28;45232;-68
2022/05/06 07:51:31;;;;;;;;;34.50;27.25;;;;;16.81;57.38;102382.03;5062106;28;45402;-68
2022/05/06 07:53:57;;;;;;;;;32.75;26.75;;;;;16.84;57.43;102373.03;5062082;28;45331;-69
2022/05/06 07:56:24;;;;;;;;;34.50;27.25;;;;;16.88;57.36;102374.53;5061558;28;45366;-69
2022/05/06 07:58:50;;;;;;;;;29.00;27.00;;;;;16.93;57.41;102372.47;5061847;28;45422;-68
2022/05/06 08:01:17;;;;;;;;;29.25;25.50;;;;;17.00;57.59;102364.03;5062463;28;45306;-68
2022/05/06 08:06:27;;;;;;;;;23.50;20.25;;;;;17.18;57.72;102362.03;5061619;28;45356;-68
2022/05/06 08:08:52;;;;;;;;;24.25;20.00;;;;;17.26;57.27;102361.56;5061510;28;45283;-69
2022/05/06 08:11:18;;;;;;;;;14.25;12.75;;;;;17.33;56.37;102357.59;5061476;28;45304;-68
2022/05/06 08:13:49;;;;;;;;;14.00;13.25;;;;;17.33;56.13;102356.72;5061435;28;45220;-69
2022/05/06 08:16:14;;;;;;;;;19.50;14.25;;;;;17.35;56.16;102366.31;5061288;28;46194;-68
2022/05/06 08:18:39;;;;;;;;;18.75;13.50;;;;;17.38;56.15;102371.47;5061607;28;45509;-69
2022/05/06 08:21:05;;;;;;;;;20.50;17.00;;;;;17.42;56.21;102369.47;5061551;28;45322;-68
2022/05/06 08:23:31;;;;;;;;;12.25;11.50;;;;;17.43;55.81;102364.03;5061837;28;45322;-69
2022/05/06 08:25:56;;;;;;;;;8.75;8.00;;;;;17.46;55.58;102361.22;5061364;28;45311;-68
2022/05/06 08:28:22;;;;;;;;;11.25;9.50;;;;;17.51;55.65;102361.75;5061332;28;45289;-68
2022/05/06 08:30:49;;;;;;;;;10.50;6.75;;;;;17.55;55.06;102362.44;5061214;28;45327;-68
2022/05/06 08:33:15;;;;;;;;;11.25;7.75;;;;;17.60;54.81;102362.97;5061551;28;45267;-68
2022/05/06 08:35:42;;;;;;;;;14.00;10.50;;;;;17.64;54.80;102361.00;5060965;28;45181;-68
2022/05/06 08:38:08;;;;;;;;;7.25;7.00;;;;;17.65;54.33;102352.91;5061384;28;45384;-69
2022/05/06 08:40:35;;;;;;;;;8.00;6.50;;;;;17.65;54.33;102360.91;5060462;28;45365;-68
2022/05/06 08:43:02;;;;;;;;;8.00;8.00;;;;;17.71;54.32;102359.69;5060858;28;45351;-69
2022/05/06 08:51:00;;;;;;;;;10.50;7.75;;;;;17.82;53.91;102363.38;5061341;28;45315;-67
2022/05/06 08:53:29;;;;;;;;;12.25;9.00;;;;;17.87;54.16;102357.75;5060995;28;45215;-68
2022/05/06 08:55:56;;;;;;;;;8.25;7.25;;;;;17.93;53.78;102354.72;5060867;28;46114;-67
2022/05/06 08:58:23;;;;;;;;;9.00;9.00;;;;;17.96;53.81;102345.66;5060837;28;45343;-67
2022/05/06 09:00:49;;;;;;;;;10.50;9.75;;;;;18.02;54.37;102342.59;5061356;28;45290;-68
2022/05/06 09:03:15;;;;;;;;;10.75;9.25;;;;;18.12;54.31;102344.53;5060880;28;45376;-68
2022/05/06 09:05:55;;;;;;;;;7.00;6.00;;;;;18.22;53.20;102347.44;5060842;28;46127;-68
2022/05/06 09:08:34;;;;;;;;;9.50;7.00;;;;;18.31;53.36;102349.50;5060617;28;45319;-68
2022/05/06 09:11:04;;;;;;;;;8.00;8.00;;;;;18.39;53.07;102349.00;5060591;28;45334;-67
2022/05/06 09:13:32;;;;;;;;;9.25;7.00;;;;;18.48;52.94;102351.03;5060678;28;45485;-69
2022/05/06 09:19:10;;;;;;;;;8.00;8.00;;;;;18.62;51.67;102348.31;5060677;28;45236;-68
2022/05/06 09:21:36;;;;;;;;;7.25;7.00;;;;;18.64;51.70;102343.75;5060963;28;45301;-67
2022/05/06 09:24:16;;;;;;;;;9.00;7.50;;;;;18.67;51.38;102345.38;5059759;28;45277;-68
2022/05/06 09:26:58;;;;;;;;;7.00;7.00;;;;;18.76;51.55;102341.22;5060410;28;45276;-68
2022/05/06 09:29:34;;;;;;;;;9.25;9.25;;;;;18.84;51.34;102344.22;5060525;28;45489;-67
2022/05/06 09:32:25;;;;;;;;;9.00;7.75;;;;;18.96;50.83;102343.41;5060776;28;45164;-68
2022/05/06 09:34:55;;;;;;;;;8.00;7.50;;;;;19.04;50.32;102337.50;5060447;28;45322;-68
2022/05/06 09:37:37;;;;;;;;;9.25;9.25;;;;;19.05;50.98;102341.91;5060456;28;45312;-68
2022/05/06 09:40:03;;;;;;;;;8.75;6.75;;;;;19.12;50.61;102332.50;5060378;28;45414;-68
2022/05/06 09:42:28;;;;;;;;;8.50;6.75;;;;;19.23;50.29;102337.94;5060057;28;45410;-68
2022/05/06 09:44:54;;;;;;;;;8.75;7.25;;;;;19.33;49.74;102338.13;5060607;28;45543;-68
2022/05/06 09:47:20;;;;;;;;;10.00;10.00;;;;;19.43;49.98;102336.50;5060227;28;45302;-68
2022/05/06 09:49:45;;;;;;;;;11.00;8.50;;;;;19.51;49.98;102335.00;5060382;28;45180;-67
2022/05/06 09:52:16;;;;;;;;;10.75;9.50;;;;;19.56;49.12;102328.47;5061296;28;45228;-68
2022/05/06 09:54:43;;;;;;;;;7.75;7.75;;;;;19.66;48.76;102329.53;5062616;28;45568;-68
2022/05/06 09:57:14;;;;;;;;;12.00;11.75;;;;;19.75;48.71;102329.75;5063349;28;45226;-67
2022/05/06 09:59:40;;;;;;;;;9.00;9.00;;;;;19.83;48.13;102326.53;5064229;28;45492;-68
2022/05/06 10:02:06;;;;;;;;;7.00;7.00;;;;;19.90;48.48;102326.91;5063825;28;45410;-67
2022/05/06 10:04:33;;;;;;;;;12.50;10.00;;;;;19.93;48.78;102330.22;5063755;28;45219;-68
2022/05/06 10:07:03;;;;;;;;;11.50;11.50;;;;;19.94;48.27;102328.41;5063540;28;45992;-68
2022/05/06 10:09:34;;;;;;;;;9.25;8.00;;;;;19.99;48.42;102326.25;5063203;28;45366;-68
2022/05/06 10:12:03;;;;;;;;;12.00;8.75;;;;;20.03;48.31;102327.72;5063206;28;45283;-67
2022/05/06 10:14:29;;;;;;;;;29.75;28.75;;;;;20.03;47.43;102320.53;5062173;28;45315;-67
2022/05/06 10:16:54;;;;;;;;;10.75;9.00;;;;;19.89;47.58;102323.38;5063374;28;45348;-68
2022/05/06 10:19:28;;;;;;;;;18.75;14.75;;;;;19.85;46.88;102321.91;5063444;28;45381;-67
2022/05/06 10:21:58;;;;;;;;;6.75;6.00;;;;;19.88;46.59;102323.50;5062262;28;45414;-68
2022/05/06 10:24:23;;;;;;;;;9.00;8.25;;;;;19.92;47.43;102317.81;5063213;28;45332;-67
2022/05/06 10:26:52;;;;;;;;;6.50;6.25;;;;;19.99;46.20;102315.53;5062925;28;45818;-67
2022/05/06 10:32:26;;;;;;;;;11.75;10.75;;;;;20.09;46.34;102319.25;5063243;28;45231;-68
2022/05/06 10:34:55;;;;;;;;;9.75;7.00;;;;;20.16;46.61;102312.47;5063312;28;45318;-68
2022/05/06 10:37:20;;;;;;;;;10.50;10.50;;;;;20.17;46.02;102311.50;5062817;28;46157;-68
2022/05/06 10:39:46;;;;;;;;;9.50;7.25;;;;;20.25;46.15;102308.25;5063221;28;45230;-68
2022/05/06 10:42:15;;;;;;;;;10.00;9.00;;;;;20.32;45.83;102312.16;5062747;28;45611;-67
2022/05/06 10:44:50;;;;;;;;;7.00;7.00;;;;;20.40;45.37;102298.22;5063055;28;45402;-68
2022/05/06 10:47:15;;;;;;;;;7.00;7.00;;;;;20.47;45.60;102303.00;5061338;28;47606;-68
2022/05/06 10:49:46;;;;;;;;;9.00;8.00;;;;;20.55;45.64;102303.28;5062904;28;45275;-67
2022/05/06 10:52:22;;;;;;;;;11.00;8.75;;;;;20.62;45.11;102298.31;5061402;28;45341;-68
2022/05/06 10:55:00;;;;;;;;;6.75;6.00;;;;;20.71;44.97;102296.75;5062596;28;45573;-68
2022/05/06 10:57:28;;;;;;;;;7.25;7.25;;;;;20.77;44.80;102298.91;5062535;28;45456;-69
2022/05/06 10:59:57;;;;;;;;;11.25;9.50;;;;;20.80;45.26;102296.03;5063056;28;45251;-69
2022/05/06 11:02:31;;;;;;;;;9.75;9.00;;;;;20.83;44.65;102299.28;5061252;28;45411;-68
2022/05/06 11:04:59;;;;;;;;;9.75;8.75;;;;;20.87;44.69;102294.56;5062811;28;45238;-69
2022/05/06 11:07:25;;;;;;;;;10.25;7.75;;;;;20.92;43.91;102290.53;5062789;28;45338;-67
2022/05/06 11:09:51;;;;;;;;;6.50;6.50;;;;;21.00;44.55;102281.91;5062200;28;45319;-68
2022/05/06 11:12:35;;;;;;;;;10.75;8.50;;;;;21.07;44.40;102283.13;5062543;28;45329;-68
2022/05/06 11:15:13;;;;;;;;;9.00;7.25;;;;;21.11;44.21;102275.72;5062816;28;45390;-67
2022/05/06 11:17:39;;;;;;;;;6.25;6.00;;;;;21.16;43.79;102284.22;5062353;28;46065;-69
2022/05/06 11:20:28;;;;;;;;;5.75;5.75;;;;;21.21;44.01;102274.00;5062629;28;45267;-68
2022/05/06 11:23:03;;;;;;;;;6.75;6.00;;;;;21.27;43.61;102269.97;5062671;28;45364;-67
2022/05/06 11:25:35;;;;;;;;;7.50;6.00;;;;;21.31;43.67;102268.78;5060907;28;45610;-67
2022/05/06 11:28:08;;;;;;;;;7.75;7.00;;;;;21.37;43.98;102262.94;5062012;28;45238;-67
2022/05/06 11:30:35;;;;;;;;;7.25;6.50;;;;;21.39;43.13;102269.00;5062067;28;45318;-68
2022/05/06 11:33:02;;;;;;;;;9.25;7.50;;;;;21.44;42.24;102274.88;5062378;28;45173;-68
2022/05/06 11:35:32;;;;;;;;;8.00;6.75;;;;;21.42;42.36;102272.31;5062114;28;45568;-67
2022/05/06 11:37:58;;;;;;;;;7.00;6.00;;;;;21.48;42.45;102272.78;5062279;28;46056;-68
2022/05/06 11:42:53;;;;;;;;;6.00;6.00;;;;;21.65;42.39;102262.41;5061970;28;45349;-68
2022/05/06 11:48:10;;;;;;;;;9.00;8.75;;;;;21.83;42.31;102261.84;5062103;28;45868;-67
2022/05/06 11:50:38;;;;;;;;;9.75;8.25;;;;;21.87;42.20;102264.13;5061864;28;45232;-68
2022/05/06 11:53:11;;;;;;;;;7.25;7.25;;;;;21.93;41.90;102262.78;5061849;28;45488;-68
2022/05/06 11:55:40;;;;;;;;;8.75;6.75;;;;;21.95;41.86;102264.34;5061652;28;45410;-67